sensor_id;sensor_type;location;lat;lon;timestamp;P1;durP1;ratioP1;P2;durP2;ratioP2
23802;SDS011;12082;51.786;6.018;2022-10-13T00:00:23;28.33;;;20.40;;
23802;SDS011;12082;51.786;6.018;2022-10-13T00:02:50;26.90;;;21.63;;
23802;SDS011;12082;51.786;6.018;2022-10-13T00:05:16;29.33;;;22.40;;
23802;SDS011;12082;51.786;6.018;2022-10-13T00:07:42;29.97;;;20.83;;
23802;SDS011;12082;51.786;6.018;2022-10-13T00:10:08;30.67;;;22.03;;
23802;SDS011;12082;51.786;6.018;2022-10-13T00:12:34;27.33;;;22.87;;
23802;SDS011;12082;51.786;6.018;2022-10-13T00:15:01;25.37;;;22.67;;
23802;SDS011;12082;51.786;6.018;2022-10-13T00:17:27;25.97;;;20.57;;
23802;SDS011;12082;51.786;6.018;2022-10-13T00:19:52;24.90;;;22.30;;
23802;SDS011;12082;51.786;6.018;2022-10-13T00:22:18;26.07;;;20.83;;
23802;SDS011;12082;51.786;6.018;2022-10-13T00:24:49;28.20;;;20.77;;
23802;SDS011;12082;51.786;6.018;2022-10-13T00:27:15;25.17;;;21.77;;
23802;SDS011;12082;51.786;6.018;2022-10-13T00:29:41;24.73;;;22.13;;
23802;SDS011;12082;51.786;6.018;2022-10-13T00:32:06;26.77;;;22.30;;
23802;SDS011;12082;51.786;6.018;2022-10-13T00:34:32;28.60;;;21.70;;
23802;SDS011;12082;51.786;6.018;2022-10-13T00:36:58;24.53;;;21.87;;
23802;SDS011;12082;51.786;6.018;2022-10-13T00:39:25;24.73;;;22.10;;
23802;SDS011;12082;51.786;6.018;2022-10-13T00:41:51;28.83;;;21.10;;
23802;SDS011;12082;51.786;6.018;2022-10-13T00:47:02;23.87;;;20.63;;
23802;SDS011;12082;51.786;6.018;2022-10-13T00:49:28;26.33;;;20.00;;
23802;SDS011;12082;51.786;6.018;2022-10-13T00:51:54;27.53;;;21.70;;
23802;SDS011;12082;51.786;6.018;2022-10-13T00:54:21;32.93;;;23.33;;
23802;SDS011;12082;51.786;6.018;2022-10-13T00:56:48;24.37;;;21.77;;
23802;SDS011;12082;51.786;6.018;2022-10-13T00:59:22;32.07;;;23.23;;
23802;SDS011;12082;51.786;6.018;2022-10-13T01:01:51;24.50;;;21.97;;
23802;SDS011;12082;51.786;6.018;2022-10-13T01:04:18;32.77;;;23.37;;
23802;SDS011;12082;51.786;6.018;2022-10-13T01:06:46;27.00;;;22.00;;
23802;SDS011;12082;51.786;6.018;2022-10-13T01:09:12;26.77;;;22.37;;
23802;SDS011;12082;51.786;6.018;2022-10-13T01:16:54;26.20;;;21.80;;
23802;SDS011;12082;51.786;6.018;2022-10-13T01:22:17;27.07;;;21.43;;
23802;SDS011;12082;51.786;6.018;2022-10-13T01:27:32;26.93;;;20.73;;
23802;SDS011;12082;51.786;6.018;2022-10-13T01:32:34;25.80;;;21.70;;
23802;SDS011;12082;51.786;6.018;2022-10-13T01:35:05;27.00;;;20.83;;
23802;SDS011;12082;51.786;6.018;2022-10-13T01:37:33;25.60;;;19.67;;
23802;SDS011;12082;51.786;6.018;2022-10-13T01:40:03;26.73;;;21.83;;
23802;SDS011;12082;51.786;6.018;2022-10-13T01:45:17;26.03;;;22.10;;
23802;SDS011;12082;51.786;6.018;2022-10-13T01:47:43;25.97;;;22.53;;
23802;SDS011;12082;51.786;6.018;2022-10-13T01:50:10;25.43;;;22.10;;
23802;SDS011;12082;51.786;6.018;2022-10-13T01:52:38;24.87;;;22.43;;
23802;SDS011;12082;51.786;6.018;2022-10-13T01:55:05;28.33;;;23.40;;
23802;SDS011;12082;51.786;6.018;2022-10-13T01:57:35;26.70;;;21.10;;
23802;SDS011;12082;51.786;6.018;2022-10-13T02:00:06;26.73;;;23.00;;
23802;SDS011;12082;51.786;6.018;2022-10-13T02:02:36;23.80;;;21.50;;
23802;SDS011;12082;51.786;6.018;2022-10-13T02:07:35;23.43;;;21.23;;
23802;SDS011;12082;51.786;6.018;2022-10-13T02:13:14;25.87;;;23.23;;
23802;SDS011;12082;51.786;6.018;2022-10-13T02:15:23;28.30;;;21.60;;
23802;SDS011;12082;51.786;6.018;2022-10-13T02:17:50;25.57;;;22.40;;
23802;SDS011;12082;51.786;6.018;2022-10-13T02:20:16;28.47;;;22.37;;
23802;SDS011;12082;51.786;6.018;2022-10-13T02:22:44;25.77;;;22.27;;
23802;SDS011;12082;51.786;6.018;2022-10-13T02:25:10;24.77;;;21.77;;
23802;SDS011;12082;51.786;6.018;2022-10-13T02:27:36;25.83;;;22.53;;
23802;SDS011;12082;51.786;6.018;2022-10-13T02:30:03;27.10;;;23.70;;
23802;SDS011;12082;51.786;6.018;2022-10-13T02:32:29;26.80;;;22.50;;
23802;SDS011;12082;51.786;6.018;2022-10-13T02:34:55;28.50;;;23.40;;
23802;SDS011;12082;51.786;6.018;2022-10-13T02:37:21;31.47;;;22.33;;
23802;SDS011;12082;51.786;6.018;2022-10-13T02:39:49;24.77;;;22.20;;
23802;SDS011;12082;51.786;6.018;2022-10-13T02:42:15;25.73;;;22.97;;
23802;SDS011;12082;51.786;6.018;2022-10-13T02:44:41;25.77;;;23.43;;
23802;SDS011;12082;51.786;6.018;2022-10-13T02:47:07;28.43;;;23.33;;
23802;SDS011;12082;51.786;6.018;2022-10-13T02:49:33;24.10;;;21.77;;
23802;SDS011;12082;51.786;6.018;2022-10-13T02:51:59;25.73;;;22.93;;
23802;SDS011;12082;51.786;6.018;2022-10-13T02:54:25;23.30;;;20.93;;
23802;SDS011;12082;51.786;6.018;2022-10-13T02:56:51;24.97;;;21.60;;
23802;SDS011;12082;51.786;6.018;2022-10-13T02:59:17;24.53;;;22.17;;
23802;SDS011;12082;51.786;6.018;2022-10-13T03:01:43;26.60;;;23.83;;
23802;SDS011;12082;51.786;6.018;2022-10-13T03:04:09;33.20;;;24.57;;
23802;SDS011;12082;51.786;6.018;2022-10-13T03:06:36;27.87;;;22.97;;
23802;SDS011;12082;51.786;6.018;2022-10-13T03:09:02;26.33;;;23.23;;
23802;SDS011;12082;51.786;6.018;2022-10-13T03:11:28;26.27;;;21.77;;
23802;SDS011;12082;51.786;6.018;2022-10-13T03:13:55;26.43;;;23.73;;
23802;SDS011;12082;51.786;6.018;2022-10-13T03:16:21;27.73;;;23.53;;
23802;SDS011;12082;51.786;6.018;2022-10-13T03:18:47;31.47;;;22.50;;
23802;SDS011;12082;51.786;6.018;2022-10-13T03:21:13;25.67;;;23.07;;
23802;SDS011;12082;51.786;6.018;2022-10-13T03:23:39;25.37;;;22.63;;
23802;SDS011;12082;51.786;6.018;2022-10-13T03:26:04;27.47;;;21.73;;
23802;SDS011;12082;51.786;6.018;2022-10-13T03:28:30;28.17;;;23.13;;
23802;SDS011;12082;51.786;6.018;2022-10-13T03:31:01;25.63;;;23.07;;
23802;SDS011;12082;51.786;6.018;2022-10-13T03:33:28;25.93;;;23.20;;
23802;SDS011;12082;51.786;6.018;2022-10-13T03:35:56;26.93;;;23.67;;
23802;SDS011;12082;51.786;6.018;2022-10-13T03:38:22;29.17;;;24.03;;
23802;SDS011;12082;51.786;6.018;2022-10-13T03:40:48;29.37;;;23.60;;
23802;SDS011;12082;51.786;6.018;2022-10-13T03:43:14;26.93;;;23.30;;
23802;SDS011;12082;51.786;6.018;2022-10-13T03:45:40;31.90;;;23.90;;
23802;SDS011;12082;51.786;6.018;2022-10-13T03:48:06;25.63;;;22.90;;
23802;SDS011;12082;51.786;6.018;2022-10-13T03:50:32;30.63;;;22.97;;
23802;SDS011;12082;51.786;6.018;2022-10-13T03:52:58;28.50;;;21.87;;
23802;SDS011;12082;51.786;6.018;2022-10-13T03:55:24;25.63;;;22.73;;
23802;SDS011;12082;51.786;6.018;2022-10-13T03:57:50;25.73;;;23.10;;
23802;SDS011;12082;51.786;6.018;2022-10-13T04:00:16;26.40;;;23.67;;
23802;SDS011;12082;51.786;6.018;2022-10-13T04:02:42;26.13;;;23.37;;
23802;SDS011;12082;51.786;6.018;2022-10-13T04:05:08;29.03;;;23.03;;
23802;SDS011;12082;51.786;6.018;2022-10-13T04:07:34;29.83;;;23.90;;
23802;SDS011;12082;51.786;6.018;2022-10-13T04:10:00;27.37;;;23.27;;
23802;SDS011;12082;51.786;6.018;2022-10-13T04:12:26;25.20;;;22.73;;
23802;SDS011;12082;51.786;6.018;2022-10-13T04:14:52;25.20;;;22.67;;
23802;SDS011;12082;51.786;6.018;2022-10-13T04:17:18;26.43;;;23.10;;
23802;SDS011;12082;51.786;6.018;2022-10-13T04:19:44;25.63;;;22.37;;
23802;SDS011;12082;51.786;6.018;2022-10-13T04:22:10;26.77;;;22.57;;
23802;SDS011;12082;51.786;6.018;2022-10-13T04:24:36;28.50;;;22.33;;
23802;SDS011;12082;51.786;6.018;2022-10-13T04:27:02;26.73;;;23.83;;
23802;SDS011;12082;51.786;6.018;2022-10-13T04:29:28;26.47;;;22.23;;
23802;SDS011;12082;51.786;6.018;2022-10-13T04:31:54;29.83;;;22.57;;
23802;SDS011;12082;51.786;6.018;2022-10-13T04:34:19;25.43;;;22.90;;
23802;SDS011;12082;51.786;6.018;2022-10-13T04:36:48;25.87;;;22.60;;
23802;SDS011;12082;51.786;6.018;2022-10-13T04:39:14;23.70;;;21.30;;
23802;SDS011;12082;51.786;6.018;2022-10-13T04:41:40;33.43;;;22.63;;
23802;SDS011;12082;51.786;6.018;2022-10-13T04:44:07;24.13;;;20.23;;
23802;SDS011;12082;51.786;6.018;2022-10-13T04:46:33;33.60;;;22.07;;
23802;SDS011;12082;51.786;6.018;2022-10-13T04:48:59;29.03;;;22.97;;
23802;SDS011;12082;51.786;6.018;2022-10-13T04:51:25;24.37;;;21.70;;
23802;SDS011;12082;51.786;6.018;2022-10-13T04:53:55;25.77;;;21.70;;
23802;SDS011;12082;51.786;6.018;2022-10-13T04:56:21;23.97;;;21.37;;
23802;SDS011;12082;51.786;6.018;2022-10-13T04:58:47;26.23;;;21.90;;
23802;SDS011;12082;51.786;6.018;2022-10-13T05:01:14;32.57;;;21.70;;
23802;SDS011;12082;51.786;6.018;2022-10-13T05:03:40;25.60;;;22.00;;
23802;SDS011;12082;51.786;6.018;2022-10-13T05:06:17;26.13;;;21.90;;
23802;SDS011;12082;51.786;6.018;2022-10-13T05:08:43;25.00;;;21.23;;
23802;SDS011;12082;51.786;6.018;2022-10-13T05:11:09;26.03;;;20.83;;
23802;SDS011;12082;51.786;6.018;2022-10-13T05:13:35;24.17;;;21.53;;
23802;SDS011;12082;51.786;6.018;2022-10-13T05:16:05;32.50;;;22.17;;
23802;SDS011;12082;51.786;6.018;2022-10-13T05:18:32;24.10;;;21.67;;
23802;SDS011;12082;51.786;6.018;2022-10-13T05:21:04;26.03;;;22.67;;
23802;SDS011;12082;51.786;6.018;2022-10-13T05:23:30;29.60;;;23.00;;
23802;SDS011;12082;51.786;6.018;2022-10-13T05:25:59;25.93;;;21.93;;
23802;SDS011;12082;51.786;6.018;2022-10-13T05:28:25;26.83;;;21.57;;
23802;SDS011;12082;51.786;6.018;2022-10-13T05:30:51;25.53;;;22.87;;
23802;SDS011;12082;51.786;6.018;2022-10-13T05:33:17;25.67;;;21.70;;
23802;SDS011;12082;51.786;6.018;2022-10-13T05:35:43;25.90;;;23.17;;
23802;SDS011;12082;51.786;6.018;2022-10-13T05:38:09;28.60;;;20.23;;
23802;SDS011;12082;51.786;6.018;2022-10-13T05:40:35;27.63;;;21.13;;
23802;SDS011;12082;51.786;6.018;2022-10-13T05:43:01;31.97;;;22.43;;
23802;SDS011;12082;51.786;6.018;2022-10-13T05:45:27;26.70;;;22.67;;
23802;SDS011;12082;51.786;6.018;2022-10-13T05:47:54;30.73;;;22.63;;
23802;SDS011;12082;51.786;6.018;2022-10-13T05:50:20;32.83;;;22.73;;
23802;SDS011;12082;51.786;6.018;2022-10-13T05:52:46;25.77;;;21.53;;
23802;SDS011;12082;51.786;6.018;2022-10-13T05:55:12;26.73;;;23.93;;
23802;SDS011;12082;51.786;6.018;2022-10-13T05:57:41;26.23;;;23.43;;
23802;SDS011;12082;51.786;6.018;2022-10-13T06:00:10;26.77;;;23.97;;
23802;SDS011;12082;51.786;6.018;2022-10-13T06:02:38;31.90;;;23.73;;
23802;SDS011;12082;51.786;6.018;2022-10-13T06:05:06;30.33;;;23.53;;
23802;SDS011;12082;51.786;6.018;2022-10-13T06:07:35;28.53;;;23.07;;
23802;SDS011;12082;51.786;6.018;2022-10-13T06:10:01;26.60;;;23.47;;
23802;SDS011;12082;51.786;6.018;2022-10-13T06:12:27;26.57;;;23.53;;
23802;SDS011;12082;51.786;6.018;2022-10-13T06:14:53;26.93;;;22.83;;
23802;SDS011;12082;51.786;6.018;2022-10-13T06:17:19;37.30;;;24.30;;
23802;SDS011;12082;51.786;6.018;2022-10-13T06:19:45;30.50;;;23.97;;
23802;SDS011;12082;51.786;6.018;2022-10-13T06:22:11;26.30;;;22.40;;
23802;SDS011;12082;51.786;6.018;2022-10-13T06:24:37;25.57;;;22.37;;
23802;SDS011;12082;51.786;6.018;2022-10-13T06:27:03;26.87;;;22.77;;
23802;SDS011;12082;51.786;6.018;2022-10-13T06:29:29;29.40;;;23.33;;
23802;SDS011;12082;51.786;6.018;2022-10-13T06:31:57;24.40;;;22.07;;
23802;SDS011;12082;51.786;6.018;2022-10-13T06:34:23;29.53;;;23.13;;
23802;SDS011;12082;51.786;6.018;2022-10-13T06:36:49;26.97;;;23.90;;
23802;SDS011;12082;51.786;6.018;2022-10-13T06:39:15;30.27;;;24.97;;
23802;SDS011;12082;51.786;6.018;2022-10-13T06:41:41;31.00;;;23.30;;
23802;SDS011;12082;51.786;6.018;2022-10-13T06:44:07;28.33;;;23.27;;
23802;SDS011;12082;51.786;6.018;2022-10-13T06:46:33;32.50;;;23.93;;
23802;SDS011;12082;51.786;6.018;2022-10-13T06:48:59;30.00;;;23.20;;
23802;SDS011;12082;51.786;6.018;2022-10-13T06:51:25;31.60;;;23.47;;
23802;SDS011;12082;51.786;6.018;2022-10-13T06:53:51;25.13;;;22.13;;
23802;SDS011;12082;51.786;6.018;2022-10-13T06:56:17;35.47;;;22.77;;
23802;SDS011;12082;51.786;6.018;2022-10-13T06:58:43;24.57;;;22.07;;
23802;SDS011;12082;51.786;6.018;2022-10-13T07:01:11;26.97;;;23.00;;
23802;SDS011;12082;51.786;6.018;2022-10-13T07:03:37;26.83;;;22.77;;
23802;SDS011;12082;51.786;6.018;2022-10-13T07:06:03;24.77;;;21.57;;
23802;SDS011;12082;51.786;6.018;2022-10-13T07:08:30;26.50;;;22.03;;
23802;SDS011;12082;51.786;6.018;2022-10-13T07:10:56;26.27;;;22.07;;
23802;SDS011;12082;51.786;6.018;2022-10-13T07:13:22;30.57;;;22.27;;
23802;SDS011;12082;51.786;6.018;2022-10-13T07:15:48;26.07;;;22.03;;
23802;SDS011;12082;51.786;6.018;2022-10-13T07:18:14;29.20;;;22.40;;
23802;SDS011;12082;51.786;6.018;2022-10-13T07:20:40;25.80;;;22.00;;
23802;SDS011;12082;51.786;6.018;2022-10-13T07:23:06;26.43;;;23.67;;
23802;SDS011;12082;51.786;6.018;2022-10-13T07:25:32;30.40;;;21.33;;
23802;SDS011;12082;51.786;6.018;2022-10-13T07:27:58;30.73;;;21.37;;
23802;SDS011;12082;51.786;6.018;2022-10-13T07:30:25;29.17;;;21.77;;
23802;SDS011;12082;51.786;6.018;2022-10-13T07:32:51;26.17;;;22.27;;
23802;SDS011;12082;51.786;6.018;2022-10-13T07:35:17;26.00;;;21.97;;
23802;SDS011;12082;51.786;6.018;2022-10-13T07:37:43;26.97;;;23.03;;
23802;SDS011;12082;51.786;6.018;2022-10-13T07:40:09;29.37;;;23.23;;
23802;SDS011;12082;51.786;6.018;2022-10-13T07:42:35;25.43;;;22.70;;
23802;SDS011;12082;51.786;6.018;2022-10-13T07:45:01;26.20;;;21.63;;
23802;SDS011;12082;51.786;6.018;2022-10-13T07:47:27;32.33;;;22.47;;
23802;SDS011;12082;51.786;6.018;2022-10-13T07:49:53;27.23;;;24.37;;
23802;SDS011;12082;51.786;6.018;2022-10-13T07:52:20;33.70;;;22.87;;
23802;SDS011;12082;51.786;6.018;2022-10-13T07:54:46;31.33;;;23.17;;
23802;SDS011;12082;51.786;6.018;2022-10-13T07:57:12;27.70;;;22.97;;
23802;SDS011;12082;51.786;6.018;2022-10-13T07:59:39;30.57;;;21.57;;
23802;SDS011;12082;51.786;6.018;2022-10-13T08:02:05;31.23;;;21.80;;
23802;SDS011;12082;51.786;6.018;2022-10-13T08:04:31;28.10;;;23.07;;
23802;SDS011;12082;51.786;6.018;2022-10-13T08:06:58;27.10;;;22.33;;
23802;SDS011;12082;51.786;6.018;2022-10-13T08:09:24;29.77;;;22.33;;
23802;SDS011;12082;51.786;6.018;2022-10-13T08:11:51;29.93;;;24.17;;
23802;SDS011;12082;51.786;6.018;2022-10-13T08:14:17;30.43;;;21.33;;
23802;SDS011;12082;51.786;6.018;2022-10-13T08:16:43;27.30;;;22.67;;
23802;SDS011;12082;51.786;6.018;2022-10-13T08:19:13;30.93;;;22.33;;
23802;SDS011;12082;51.786;6.018;2022-10-13T08:21:39;33.23;;;22.83;;
23802;SDS011;12082;51.786;6.018;2022-10-13T08:24:06;33.33;;;22.13;;
23802;SDS011;12082;51.786;6.018;2022-10-13T08:26:32;27.60;;;23.00;;
23802;SDS011;12082;51.786;6.018;2022-10-13T08:28:58;31.40;;;23.20;;
23802;SDS011;12082;51.786;6.018;2022-10-13T08:31:24;28.67;;;23.07;;
23802;SDS011;12082;51.786;6.018;2022-10-13T08:33:50;28.47;;;22.27;;
23802;SDS011;12082;51.786;6.018;2022-10-13T08:36:16;27.97;;;23.53;;
23802;SDS011;12082;51.786;6.018;2022-10-13T08:38:43;25.63;;;22.07;;
23802;SDS011;12082;51.786;6.018;2022-10-13T08:41:13;25.27;;;21.80;;
23802;SDS011;12082;51.786;6.018;2022-10-13T08:43:40;31.97;;;22.37;;
23802;SDS011;12082;51.786;6.018;2022-10-13T08:46:07;25.13;;;22.10;;
23802;SDS011;12082;51.786;6.018;2022-10-13T08:48:34;35.83;;;23.37;;
23802;SDS011;12082;51.786;6.018;2022-10-13T08:51:04;24.37;;;21.77;;
23802;SDS011;12082;51.786;6.018;2022-10-13T08:55:58;25.77;;;21.47;;
23802;SDS011;12082;51.786;6.018;2022-10-13T08:58:29;26.57;;;19.77;;
23802;SDS011;12082;51.786;6.018;2022-10-13T09:03:37;27.90;;;21.10;;
23802;SDS011;12082;51.786;6.018;2022-10-13T09:06:14;30.03;;;21.40;;
23802;SDS011;12082;51.786;6.018;2022-10-13T09:08:42;30.30;;;24.23;;
23802;SDS011;12082;51.786;6.018;2022-10-13T09:11:11;27.27;;;23.67;;
23802;SDS011;12082;51.786;6.018;2022-10-13T09:13:37;28.07;;;21.23;;
23802;SDS011;12082;51.786;6.018;2022-10-13T09:16:04;31.47;;;21.90;;
23802;SDS011;12082;51.786;6.018;2022-10-13T09:18:31;24.40;;;20.17;;
23802;SDS011;12082;51.786;6.018;2022-10-13T09:21:10;23.97;;;19.07;;
23802;SDS011;12082;51.786;6.018;2022-10-13T09:23:36;24.83;;;17.57;;
23802;SDS011;12082;51.786;6.018;2022-10-13T09:26:07;25.80;;;18.17;;
23802;SDS011;12082;51.786;6.018;2022-10-13T09:28:33;28.73;;;18.17;;
23802;SDS011;12082;51.786;6.018;2022-10-13T09:31:13;25.77;;;17.13;;
23802;SDS011;12082;51.786;6.018;2022-10-13T09:33:39;23.70;;;18.27;;
23802;SDS011;12082;51.786;6.018;2022-10-13T09:36:06;26.07;;;16.83;;
23802;SDS011;12082;51.786;6.018;2022-10-13T09:38:35;29.63;;;19.10;;
23802;SDS011;12082;51.786;6.018;2022-10-13T09:43:30;23.93;;;17.43;;
23802;SDS011;12082;51.786;6.018;2022-10-13T09:45:57;25.20;;;16.83;;
23802;SDS011;12082;51.786;6.018;2022-10-13T09:48:27;24.23;;;16.63;;
23802;SDS011;12082;51.786;6.018;2022-10-13T09:50:54;26.13;;;17.67;;
23802;SDS011;12082;51.786;6.018;2022-10-13T09:55:46;32.20;;;17.47;;
23802;SDS011;12082;51.786;6.018;2022-10-13T09:58:27;25.93;;;17.13;;
23802;SDS011;12082;51.786;6.018;2022-10-13T10:00:54;31.40;;;17.80;;
23802;SDS011;12082;51.786;6.018;2022-10-13T10:03:23;28.37;;;16.67;;
23802;SDS011;12082;51.786;6.018;2022-10-13T10:11:02;27.70;;;16.90;;
23802;SDS011;12082;51.786;6.018;2022-10-13T10:13:29;27.57;;;16.30;;
23802;SDS011;12082;51.786;6.018;2022-10-13T10:16:06;32.03;;;18.60;;
23802;SDS011;12082;51.786;6.018;2022-10-13T10:26:00;29.20;;;19.03;;
23802;SDS011;12082;51.786;6.018;2022-10-13T10:36:22;27.50;;;19.23;;
23802;SDS011;12082;51.786;6.018;2022-10-13T10:44:09;25.90;;;18.57;;
23802;SDS011;12082;51.786;6.018;2022-10-13T10:46:36;27.80;;;18.53;;
23802;SDS011;12082;51.786;6.018;2022-10-13T10:49:13;24.63;;;17.47;;
23802;SDS011;12082;51.786;6.018;2022-10-13T10:51:40;23.63;;;16.97;;
23802;SDS011;12082;51.786;6.018;2022-10-13T10:57:03;28.80;;;18.67;;
23802;SDS011;12082;51.786;6.018;2022-10-13T11:06:57;24.00;;;17.33;;
23802;SDS011;12082;51.786;6.018;2022-10-13T11:14:47;31.47;;;18.83;;
23802;SDS011;12082;51.786;6.018;2022-10-13T11:17:17;23.80;;;17.80;;
23802;SDS011;12082;51.786;6.018;2022-10-13T11:19:44;31.07;;;20.13;;
23802;SDS011;12082;51.786;6.018;2022-10-13T11:22:12;27.67;;;19.87;;
23802;SDS011;12082;51.786;6.018;2022-10-13T11:24:43;32.07;;;21.17;;
23802;SDS011;12082;51.786;6.018;2022-10-13T11:40:23;32.67;;;22.13;;
23802;SDS011;12082;51.786;6.018;2022-10-13T11:43:04;26.17;;;21.47;;
23802;SDS011;12082;51.786;6.018;2022-10-13T11:48:08;27.00;;;21.10;;
23802;SDS011;12082;51.786;6.018;2022-10-13T11:50:47;26.07;;;21.40;;
23802;SDS011;12082;51.786;6.018;2022-10-13T11:53:17;23.43;;;20.80;;
23802;SDS011;12082;51.786;6.018;2022-10-13T12:00:47;29.27;;;22.23;;
23802;SDS011;12082;51.786;6.018;2022-10-13T12:03:18;24.93;;;19.90;;
23802;SDS011;12082;51.786;6.018;2022-10-13T12:05:46;23.70;;;20.07;;
23802;SDS011;12082;51.786;6.018;2022-10-13T12:08:12;23.27;;;20.50;;
23802;SDS011;12082;51.786;6.018;2022-10-13T12:10:38;26.53;;;21.67;;
23802;SDS011;12082;51.786;6.018;2022-10-13T12:13:04;26.13;;;20.53;;
23802;SDS011;12082;51.786;6.018;2022-10-13T12:17:58;25.70;;;20.83;;
23802;SDS011;12082;51.786;6.018;2022-10-13T12:20:28;30.07;;;22.37;;
23802;SDS011;12082;51.786;6.018;2022-10-13T12:22:54;28.40;;;21.10;;
23802;SDS011;12082;51.786;6.018;2022-10-13T12:25:21;28.87;;;21.57;;
23802;SDS011;12082;51.786;6.018;2022-10-13T12:27:49;27.97;;;20.20;;
23802;SDS011;12082;51.786;6.018;2022-10-13T12:32:49;25.87;;;21.80;;
23802;SDS011;12082;51.786;6.018;2022-10-13T12:37:42;29.40;;;21.30;;
23802;SDS011;12082;51.786;6.018;2022-10-13T12:40:08;29.73;;;22.67;;
23802;SDS011;12082;51.786;6.018;2022-10-13T12:42:37;30.80;;;21.83;;
23802;SDS011;12082;51.786;6.018;2022-10-13T12:45:04;28.27;;;21.70;;
23802;SDS011;12082;51.786;6.018;2022-10-13T12:47:34;33.20;;;22.47;;
23802;SDS011;12082;51.786;6.018;2022-10-13T12:52:45;35.97;;;24.50;;
23802;SDS011;12082;51.786;6.018;2022-10-13T12:55:15;32.67;;;24.87;;
23802;SDS011;12082;51.786;6.018;2022-10-13T12:57:43;30.67;;;23.17;;
23802;SDS011;12082;51.786;6.018;2022-10-13T13:02:46;34.70;;;24.40;;
23802;SDS011;12082;51.786;6.018;2022-10-13T13:07:56;33.03;;;27.00;;
23802;SDS011;12082;51.786;6.018;2022-10-13T13:10:22;41.50;;;29.23;;
23802;SDS011;12082;51.786;6.018;2022-10-13T13:12:48;39.00;;;28.57;;
23802;SDS011;12082;51.786;6.018;2022-10-13T13:17:44;38.67;;;28.20;;
23802;SDS011;12082;51.786;6.018;2022-10-13T13:22:49;44.43;;;27.70;;
23802;SDS011;12082;51.786;6.018;2022-10-13T13:25:15;35.70;;;27.33;;
23802;SDS011;12082;51.786;6.018;2022-10-13T13:27:41;46.47;;;29.10;;
23802;SDS011;12082;51.786;6.018;2022-10-13T13:30:10;33.03;;;27.40;;
23802;SDS011;12082;51.786;6.018;2022-10-13T13:32:36;34.87;;;26.80;;
23802;SDS011;12082;51.786;6.018;2022-10-13T13:35:03;34.53;;;26.47;;
23802;SDS011;12082;51.786;6.018;2022-10-13T13:40:01;40.07;;;29.50;;
23802;SDS011;12082;51.786;6.018;2022-10-13T13:42:27;33.53;;;28.57;;
23802;SDS011;12082;51.786;6.018;2022-10-13T13:44:53;37.17;;;27.07;;
23802;SDS011;12082;51.786;6.018;2022-10-13T13:47:20;35.97;;;28.40;;
23802;SDS011;12082;51.786;6.018;2022-10-13T13:49:47;32.73;;;27.70;;
23802;SDS011;12082;51.786;6.018;2022-10-13T13:52:13;36.43;;;28.67;;
23802;SDS011;12082;51.786;6.018;2022-10-13T13:54:39;32.37;;;28.90;;
23802;SDS011;12082;51.786;6.018;2022-10-13T13:57:05;38.90;;;28.90;;
23802;SDS011;12082;51.786;6.018;2022-10-13T13:59:31;37.60;;;28.07;;
23802;SDS011;12082;51.786;6.018;2022-10-13T14:01:57;36.63;;;28.20;;
23802;SDS011;12082;51.786;6.018;2022-10-13T14:04:23;36.77;;;29.30;;
23802;SDS011;12082;51.786;6.018;2022-10-13T14:06:50;34.53;;;29.10;;
23802;SDS011;12082;51.786;6.018;2022-10-13T14:09:16;39.40;;;29.90;;
23802;SDS011;12082;51.786;6.018;2022-10-13T14:11:42;36.33;;;28.73;;
23802;SDS011;12082;51.786;6.018;2022-10-13T14:14:08;33.67;;;27.83;;
23802;SDS011;12082;51.786;6.018;2022-10-13T14:16:34;36.50;;;27.47;;
23802;SDS011;12082;51.786;6.018;2022-10-13T14:19:00;37.90;;;28.17;;
23802;SDS011;12082;51.786;6.018;2022-10-13T14:21:26;34.27;;;27.07;;
23802;SDS011;12082;51.786;6.018;2022-10-13T14:23:52;35.30;;;27.30;;
23802;SDS011;12082;51.786;6.018;2022-10-13T14:26:18;36.73;;;28.17;;
23802;SDS011;12082;51.786;6.018;2022-10-13T14:28:44;31.97;;;26.27;;
23802;SDS011;12082;51.786;6.018;2022-10-13T14:31:10;35.70;;;27.03;;
23802;SDS011;12082;51.786;6.018;2022-10-13T14:33:37;37.47;;;28.13;;
23802;SDS011;12082;51.786;6.018;2022-10-13T14:36:04;37.67;;;29.77;;
23802;SDS011;12082;51.786;6.018;2022-10-13T14:38:31;37.63;;;26.93;;
23802;SDS011;12082;51.786;6.018;2022-10-13T14:40:58;31.70;;;27.60;;
23802;SDS011;12082;51.786;6.018;2022-10-13T14:43:24;34.47;;;26.70;;
23802;SDS011;12082;51.786;6.018;2022-10-13T14:45:50;38.17;;;28.87;;
23802;SDS011;12082;51.786;6.018;2022-10-13T14:48:16;37.23;;;26.80;;
23802;SDS011;12082;51.786;6.018;2022-10-13T14:50:42;38.40;;;28.20;;
23802;SDS011;12082;51.786;6.018;2022-10-13T14:53:08;35.60;;;27.80;;
23802;SDS011;12082;51.786;6.018;2022-10-13T14:55:39;31.23;;;27.53;;
23802;SDS011;12082;51.786;6.018;2022-10-13T14:58:05;40.53;;;28.47;;
23802;SDS011;12082;51.786;6.018;2022-10-13T15:00:31;39.53;;;28.10;;
23802;SDS011;12082;51.786;6.018;2022-10-13T15:02:57;36.13;;;26.83;;
23802;SDS011;12082;51.786;6.018;2022-10-13T15:05:23;35.97;;;28.00;;
23802;SDS011;12082;51.786;6.018;2022-10-13T15:07:49;36.10;;;26.77;;
23802;SDS011;12082;51.786;6.018;2022-10-13T15:10:15;41.47;;;28.43;;
23802;SDS011;12082;51.786;6.018;2022-10-13T15:12:40;40.40;;;27.80;;
23802;SDS011;12082;51.786;6.018;2022-10-13T15:15:07;35.20;;;27.97;;
23802;SDS011;12082;51.786;6.018;2022-10-13T15:17:33;40.37;;;28.47;;
23802;SDS011;12082;51.786;6.018;2022-10-13T15:20:00;38.93;;;29.63;;
23802;SDS011;12082;51.786;6.018;2022-10-13T15:22:27;36.97;;;27.30;;
23802;SDS011;12082;51.786;6.018;2022-10-13T15:24:53;34.97;;;28.70;;
23802;SDS011;12082;51.786;6.018;2022-10-13T15:27:19;42.60;;;28.83;;
23802;SDS011;12082;51.786;6.018;2022-10-13T15:29:45;39.17;;;30.57;;
23802;SDS011;12082;51.786;6.018;2022-10-13T15:32:13;37.10;;;28.13;;
23802;SDS011;12082;51.786;6.018;2022-10-13T15:34:42;39.53;;;28.43;;
23802;SDS011;12082;51.786;6.018;2022-10-13T15:37:09;33.73;;;25.47;;
23802;SDS011;12082;51.786;6.018;2022-10-13T15:39:35;40.17;;;27.20;;
23802;SDS011;12082;51.786;6.018;2022-10-13T15:42:02;44.83;;;28.17;;
23802;SDS011;12082;51.786;6.018;2022-10-13T15:44:28;38.97;;;27.30;;
23802;SDS011;12082;51.786;6.018;2022-10-13T15:46:55;40.40;;;27.87;;
23802;SDS011;12082;51.786;6.018;2022-10-13T15:49:21;37.37;;;26.93;;
23802;SDS011;12082;51.786;6.018;2022-10-13T15:51:47;36.20;;;26.77;;
23802;SDS011;12082;51.786;6.018;2022-10-13T15:54:13;36.57;;;26.50;;
23802;SDS011;12082;51.786;6.018;2022-10-13T15:56:40;40.23;;;26.27;;
23802;SDS011;12082;51.786;6.018;2022-10-13T15:59:06;42.43;;;28.23;;
23802;SDS011;12082;51.786;6.018;2022-10-13T16:01:32;41.33;;;29.33;;
23802;SDS011;12082;51.786;6.018;2022-10-13T16:03:58;40.43;;;30.33;;
23802;SDS011;12082;51.786;6.018;2022-10-13T16:06:23;53.27;;;31.87;;
23802;SDS011;12082;51.786;6.018;2022-10-13T16:08:50;44.03;;;28.80;;
23802;SDS011;12082;51.786;6.018;2022-10-13T16:11:18;45.23;;;30.20;;
23802;SDS011;12082;51.786;6.018;2022-10-13T16:13:48;51.83;;;29.73;;
23802;SDS011;12082;51.786;6.018;2022-10-13T16:16:15;43.33;;;27.80;;
23802;SDS011;12082;51.786;6.018;2022-10-13T16:18:41;43.20;;;28.80;;